Time;durP1;ratioP1;P1;durP2;ratioP2;P2;SDS_P1;SDS_P2;PMS_P1;PMS_P2;Temp;Humidity;BMP_temperature;BMP_pressure;BME280_temperature;BME280_humidity;BME280_pressure;Samples;Min_cycle;Max_cycle;Signal;HPM_P1;HPM_P2
2019/08/13 00:02:23;;;;;;;1.51;1.40;;;;;;;22.93;57.57;100728.04;;;;-57
2019/08/13 00:05:27;;;;;;;1.60;1.49;;;;;;;22.94;57.59;100729.52;;;;-51
2019/08/13 00:11:18;;;;;;;1.45;1.35;;;;;;;22.94;57.57;100720.42;;;;-51
2019/08/13 00:14:12;;;;;;;1.40;1.30;;;;;;;22.93;57.54;100717.94;;;;-56
2019/08/13 00:22:07;;;;;;;2.09;1.57;;;;;;;22.91;57.57;100710.55;;;;-56
2019/08/13 00:25:06;;;;;;;1.84;1.52;;;;;;;22.92;57.56;100709.48;;;;-51
2019/08/13 00:28:07;;;;;;;1.87;1.35;;;;;;;22.92;57.59;100708.40;;;;-52
2019/08/13 00:31:06;;;;;;;1.51;1.39;;;;;;;22.90;57.58;100704.97;;;;-57
2019/08/13 00:34:07;;;;;;;2.21;1.65;;;;;;;22.91;57.55;100706.75;;;;-51
2019/08/13 00:37:06;;;;;;;1.40;1.30;;;;;;;22.90;57.56;100705.80;;;;-58
2019/08/13 00:40:06;;;;;;;1.60;1.33;;;;;;;22.90;57.57;100705.03;;;;-53
2019/08/13 00:43:06;;;;;;;1.58;1.39;;;;;;;22.90;57.58;100706.98;;;;-58
2019/08/13 00:46:06;;;;;;;1.31;1.20;;;;;;;22.90;57.60;100708.16;;;;-56
2019/08/13 00:49:07;;;;;;;1.47;1.30;;;;;;;22.90;57.59;100708.73;;;;-51
2019/08/13 00:52:06;;;;;;;1.45;1.35;;;;;;;22.89;57.60;100707.63;;;;-52
2019/08/13 00:55:06;;;;;;;2.59;1.59;;;;;;;22.89;57.61;100711.16;;;;-56
2019/08/13 00:58:07;;;;;;;1.89;1.39;;;;;;;22.89;57.62;100708.03;;;;-51
2019/08/13 01:01:07;;;;;;;1.63;1.53;;;;;;;22.89;57.61;100711.91;;;;-57
2019/08/13 01:04:06;;;;;;;1.51;1.40;;;;;;;22.89;57.63;100714.59;;;;-51
2019/08/13 01:07:06;;;;;;;1.49;1.39;;;;;;;22.88;57.58;100713.15;;;;-51
2019/08/13 01:10:06;;;;;;;1.37;1.27;;;;;;;22.88;57.57;100711.02;;;;-56
2019/08/13 01:13:06;;;;;;;1.40;1.30;;;;;;;22.88;57.59;100708.77;;;;-51
2019/08/13 01:16:06;;;;;;;1.93;1.38;;;;;;;22.87;57.61;100709.41;;;;-56
2019/08/13 01:19:06;;;;;;;1.63;1.37;;;;;;;22.87;57.62;100710.31;;;;-56
2019/08/13 01:22:06;;;;;;;1.60;1.50;;;;;;;22.86;57.62;100708.02;;;;-51
2019/08/13 01:25:06;;;;;;;1.40;1.30;;;;;;;22.88;57.62;100707.31;;;;-51
2019/08/13 01:28:06;;;;;;;1.43;1.33;;;;;;;22.86;57.60;100704.15;;;;-52
2019/08/13 01:31:23;;;;;;;1.48;1.38;;;;;;;22.86;57.65;100707.02;;;;-57
2019/08/13 01:44:24;;;;;;;1.57;1.47;;;;;;;22.86;57.61;100701.02;;;;-56
2019/08/13 01:47:21;;;;;;;2.51;1.39;;;;;;;22.85;57.64;100703.67;;;;-57
2019/08/13 01:50:40;;;;;;;1.72;1.41;;;;;;;22.85;57.59;100705.91;;;;-57
2019/08/13 01:59:12;;;;;;;1.52;1.39;;;;;;;22.84;57.63;100712.33;;;;-57
2019/08/13 02:02:10;;;;;;;2.24;1.35;;;;;;;22.84;57.63;100708.63;;;;-51
2019/08/13 02:05:17;;;;;;;1.40;1.30;;;;;;;22.83;57.62;100705.23;;;;-56
2019/08/13 02:08:20;;;;;;;1.46;1.36;;;;;;;22.83;57.63;100705.33;;;;-56
2019/08/13 02:14:16;;;;;;;2.15;1.40;;;;;;;22.82;57.64;100701.15;;;;-51
2019/08/13 02:17:15;;;;;;;1.45;1.35;;;;;;;22.83;57.62;100708.26;;;;-51
2019/08/13 02:23:45;;;;;;;1.51;1.40;;;;;;;22.82;57.60;100712.09;;;;-54
2019/08/13 02:36:06;;;;;;;1.57;1.47;;;;;;;22.82;57.58;100720.25;;;;-56
2019/08/13 02:39:06;;;;;;;1.40;1.30;;;;;;;22.81;57.60;100720.08;;;;-56
2019/08/13 02:42:06;;;;;;;1.71;1.40;;;;;;;22.80;57.63;100718.77;;;;-52
2019/08/13 02:45:07;;;;;;;1.85;1.39;;;;;;;22.81;57.62;100723.41;;;;-57
2019/08/13 02:48:06;;;;;;;1.58;1.44;;;;;;;22.79;57.61;100719.91;;;;-57
2019/08/13 02:51:06;;;;;;;1.47;1.35;;;;;;;22.80;57.63;100726.67;;;;-51
2019/08/13 02:54:06;;;;;;;1.40;1.30;;;;;;;22.80;57.64;100726.27;;;;-51
2019/08/13 02:57:06;;;;;;;1.50;1.40;;;;;;;22.80;57.61;100725.59;;;;-57
2019/08/13 03:00:08;;;;;;;1.39;1.29;;;;;;;22.79;57.63;100731.69;;;;-52
2019/08/13 03:03:06;;;;;;;1.40;1.30;;;;;;;22.79;57.61;100721.76;;;;-56
2019/08/13 03:06:06;;;;;;;2.37;1.47;;;;;;;22.79;57.62;100718.33;;;;-51
2019/08/13 03:09:07;;;;;;;1.48;1.38;;;;;;;22.79;57.62;100715.70;;;;-51
2019/08/13 03:12:06;;;;;;;1.55;1.30;;;;;;;22.80;57.60;100716.41;;;;-57
2019/08/13 03:15:06;;;;;;;1.40;1.29;;;;;;;22.79;57.59;100716.30;;;;-57
2019/08/13 03:18:06;;;;;;;1.48;1.38;;;;;;;22.79;57.61;100715.63;;;;-51
2019/08/13 03:21:07;;;;;;;1.50;1.40;;;;;;;22.79;57.58;100716.09;;;;-51
2019/08/13 03:24:06;;;;;;;1.41;1.31;;;;;;;22.78;57.62;100719.03;;;;-56
2019/08/13 03:27:07;;;;;;;1.46;1.36;;;;;;;22.78;57.59;100714.66;;;;-52
2019/08/13 03:30:06;;;;;;;1.51;1.41;;;;;;;22.77;57.59;100714.14;;;;-51
2019/08/13 03:33:06;;;;;;;1.51;1.41;;;;;;;22.78;57.59;100717.45;;;;-51
2019/08/13 03:36:06;;;;;;;1.90;1.45;;;;;;;22.77;57.62;100719.20;;;;-51
2019/08/13 03:39:06;;;;;;;1.60;1.50;;;;;;;22.78;57.62;100724.92;;;;-51
2019/08/13 03:42:06;;;;;;;1.38;1.28;;;;;;;22.77;57.59;100731.72;;;;-51
2019/08/13 03:45:07;;;;;;;1.47;1.37;;;;;;;22.77;57.60;100728.83;;;;-51
2019/08/13 03:48:06;;;;;;;1.45;1.35;;;;;;;22.77;57.60;100730.27;;;;-52
2019/08/13 03:51:06;;;;;;;1.49;1.39;;;;;;;22.77;57.61;100729.84;;;;-51
2019/08/13 03:54:06;;;;;;;1.44;1.34;;;;;;;22.76;57.61;100729.27;;;;-51
2019/08/13 03:57:06;;;;;;;1.49;1.37;;;;;;;22.76;57.58;100722.09;;;;-51
2019/08/13 04:00:06;;;;;;;1.39;1.29;;;;;;;22.76;57.60;100730.14;;;;-51
2019/08/13 04:03:06;;;;;;;1.60;1.50;;;;;;;22.76;57.59;100737.85;;;;-57
2019/08/13 04:06:06;;;;;;;1.46;1.36;;;;;;;22.76;57.59;100747.92;;;;-57
2019/08/13 04:09:10;;;;;;;1.49;1.39;;;;;;;22.76;57.63;100752.13;;;;-56
2019/08/13 04:12:06;;;;;;;1.40;1.30;;;;;;;22.75;57.58;100754.38;;;;-56
2019/08/13 04:15:07;;;;;;;1.40;1.30;;;;;;;22.75;57.59;100756.50;;;;-56
2019/08/13 04:18:06;;;;;;;1.33;1.23;;;;;;;22.75;57.61;100754.66;;;;-56
2019/08/13 04:21:06;;;;;;;1.49;1.39;;;;;;;22.75;57.64;100754.45;;;;-51
2019/08/13 04:24:06;;;;;;;1.51;1.41;;;;;;;22.75;57.60;100757.25;;;;-51
2019/08/13 04:27:06;;;;;;;1.40;1.30;;;;;;;22.75;57.60;100756.70;;;;-56
2019/08/13 04:30:06;;;;;;;1.50;1.40;;;;;;;22.74;57.60;100756.64;;;;-51
2019/08/13 04:33:06;;;;;;;1.40;1.30;;;;;;;22.74;57.63;100760.17;;;;-57
2019/08/13 04:36:06;;;;;;;1.40;1.30;;;;;;;22.74;57.66;100757.95;;;;-52
2019/08/13 04:39:06;;;;;;;1.40;1.30;;;;;;;22.74;57.66;100756.53;;;;-56
2019/08/13 04:42:06;;;;;;;1.47;1.37;;;;;;;22.73;57.67;100759.13;;;;-51
2019/08/13 04:45:06;;;;;;;1.50;1.40;;;;;;;22.73;57.68;100757.45;;;;-51
2019/08/13 04:48:06;;;;;;;1.40;1.30;;;;;;;22.72;57.68;100755.73;;;;-56
2019/08/13 04:51:08;;;;;;;1.45;1.30;;;;;;;22.73;57.68;100761.52;;;;-51
2019/08/13 04:54:06;;;;;;;1.52;1.42;;;;;;;22.72;57.70;100764.65;;;;-56
2019/08/13 04:57:06;;;;;;;1.40;1.30;;;;;;;22.73;57.71;100768.63;;;;-56
2019/08/13 05:00:06;;;;;;;1.40;1.30;;;;;;;22.72;57.68;100770.34;;;;-56
2019/08/13 05:03:06;;;;;;;1.51;1.41;;;;;;;22.72;57.70;100771.02;;;;-56
2019/08/13 05:06:06;;;;;;;1.40;1.30;;;;;;;22.72;57.67;100778.02;;;;-56
2019/08/13 05:09:06;;;;;;;1.51;1.41;;;;;;;22.72;57.73;100779.43;;;;-56
2019/08/13 05:12:06;;;;;;;1.40;1.30;;;;;;;22.72;57.73;100782.80;;;;-56
2019/08/13 05:15:06;;;;;;;1.40;1.30;;;;;;;22.71;57.75;100786.41;;;;-52
2019/08/13 05:18:06;;;;;;;1.43;1.33;;;;;;;22.71;57.73;100789.20;;;;-51
2019/08/13 05:21:06;;;;;;;1.47;1.37;;;;;;;22.72;57.70;100796.61;;;;-51
2019/08/13 05:24:06;;;;;;;1.44;1.34;;;;;;;22.72;57.72;100802.91;;;;-57
2019/08/13 05:27:06;;;;;;;5.07;2.27;;;;;;;22.53;55.44;100805.36;;;;-58
2019/08/13 05:30:06;;;;;;;3.47;2.63;;;;;;;22.03;54.91;100809.55;;;;-55
2019/08/13 05:33:06;;;;;;;3.23;2.45;;;;;;;21.89;55.35;100812.56;;;;-50
2019/08/13 05:36:26;;;;;;;3.66;2.46;;;;;;;21.74;55.72;100813.73;;;;-50
2019/08/13 05:39:12;;;;;;;3.01;2.47;;;;;;;21.61;55.96;100815.05;;;;-51
2019/08/13 05:42:06;;;;;;;4.76;2.61;;;;;;;21.59;56.13;100818.09;;;;-50
2019/08/13 05:45:06;;;;;;;4.13;2.33;;;;;;;21.52;56.48;100815.19;;;;-58
2019/08/13 05:48:06;;;;;;;4.69;2.73;;;;;;;21.53;56.43;100822.11;;;;-50
2019/08/13 05:51:06;;;;;;;4.55;2.51;;;;;;;21.63;56.40;100821.08;;;;-57
2019/08/13 05:57:26;;;;;;;3.96;2.46;;;;;;;21.62;55.65;100832.97;;;;-60
2019/08/13 06:00:06;;;;;;;4.75;2.29;;;;;;;21.65;55.57;100841.00;;;;-52
2019/08/13 06:03:06;;;;;;;4.71;2.49;;;;;;;21.61;55.68;100843.89;;;;-51
2019/08/13 06:06:09;;;;;;;4.23;2.39;;;;;;;21.68;54.64;100842.97;;;;-52
2019/08/13 06:09:09;;;;;;;3.21;2.20;;;;;;;21.67;54.10;100846.23;;;;-59
2019/08/13 06:12:07;;;;;;;4.36;2.27;;;;;;;21.61;55.07;100847.19;;;;-59
2019/08/13 06:15:06;;;;;;;3.53;2.33;;;;;;;21.63;55.04;100852.34;;;;-59
2019/08/13 06:18:06;;;;;;;2.85;2.40;;;;;;;21.59;54.92;100855.84;;;;-51
2019/08/13 06:21:06;;;;;;;4.80;2.45;;;;;;;21.59;55.28;100858.53;;;;-52
2019/08/13 06:24:06;;;;;;;2.85;2.23;;;;;;;21.59;55.25;100859.27;;;;-60
2019/08/13 06:27:06;;;;;;;4.41;2.36;;;;;;;21.61;54.73;100866.08;;;;-57
2019/08/13 06:30:06;;;;;;;3.43;2.41;;;;;;;21.61;54.99;100864.67;;;;-50
2019/08/13 06:33:06;;;;;;;3.37;2.29;;;;;;;21.66;54.20;100868.71;;;;-57
2019/08/13 06:36:07;;;;;;;6.29;2.35;;;;;;;21.57;54.75;100873.05;;;;-57
2019/08/13 06:39:06;;;;;;;2.37;1.96;;;;;;;21.59;54.16;100874.47;;;;-50
2019/08/13 06:42:06;;;;;;;3.09;2.24;;;;;;;21.60;54.34;100876.23;;;;-59
2019/08/13 06:45:06;;;;;;;3.39;2.29;;;;;;;21.52;54.13;100888.12;;;;-58
2019/08/13 06:48:06;;;;;;;3.35;2.21;;;;;;;21.39;54.03;100893.56;;;;-58
2019/08/13 06:51:06;;;;;;;4.25;2.45;;;;;;;21.38;54.22;100897.05;;;;-59
2019/08/13 06:54:07;;;;;;;5.25;2.49;;;;;;;21.36;54.47;100899.69;;;;-58
2019/08/13 06:57:06;;;;;;;3.29;2.41;;;;;;;21.39;54.56;100904.30;;;;-58
2019/08/13 07:00:06;;;;;;;2.83;2.30;;;;;;;21.36;54.61;100903.62;;;;-58
2019/08/13 07:03:06;;;;;;;3.62;2.45;;;;;;;21.39;54.58;100908.02;;;;-50
2019/08/13 07:06:09;;;;;;;4.47;2.54;;;;;;;21.37;54.56;100910.15;;;;-50
2019/08/13 07:09:06;;;;;;;3.12;2.31;;;;;;;21.33;54.83;100907.05;;;;-57
2019/08/13 07:12:06;;;;;;;3.60;2.49;;;;;;;21.31;54.89;100913.02;;;;-50
2019/08/13 07:15:06;;;;;;;3.93;2.20;;;;;;;21.39;55.15;100920.82;;;;-50
2019/08/13 07:18:06;;;;;;;2.96;2.31;;;;;;;21.46;55.09;100917.06;;;;-51
2019/08/13 07:21:06;;;;;;;4.90;2.04;;;;;;;21.49;55.19;100915.62;;;;-58
2019/08/13 07:24:06;;;;;;;3.40;2.30;;;;;;;21.58;55.20;100918.02;;;;-60
2019/08/13 07:27:06;;;;;;;2.46;2.26;;;;;;;21.62;55.33;100916.11;;;;-52
2019/08/13 07:30:06;;;;;;;3.00;2.26;;;;;;;21.65;55.22;100916.34;;;;-51
2019/08/13 07:33:06;;;;;;;3.93;2.18;;;;;;;21.71;55.00;100916.66;;;;-50
2019/08/13 07:36:07;;;;;;;3.82;2.55;;;;;;;21.64;54.28;100914.24;;;;-59
2019/08/13 07:39:06;;;;;;;4.41;2.43;;;;;;;21.70;54.18;100919.04;;;;-55
2019/08/13 07:42:06;;;;;;;4.38;2.55;;;;;;;21.68;54.29;100916.13;;;;-57
2019/08/13 07:45:06;;;;;;;3.55;2.53;;;;;;;21.71;54.10;100917.67;;;;-51
2019/08/13 07:48:07;;;;;;;5.32;2.45;;;;;;;21.73;53.92;100918.09;;;;-50
2019/08/13 07:51:09;;;;;;;3.59;2.60;;;;;;;21.70;53.66;100917.97;;;;-58
2019/08/13 07:54:06;;;;;;;3.69;2.75;;;;;;;21.72;53.59;100918.22;;;;-53
2019/08/13 07:57:06;;;;;;;3.89;2.97;;;;;;;21.64;52.93;100915.46;;;;-56
2019/08/13 08:00:06;;;;;;;3.95;3.27;;;;;;;21.58;52.71;100923.80;;;;-53
2019/08/13 08:03:06;;;;;;;4.04;2.99;;;;;;;21.61;52.78;100918.31;;;;-52
2019/08/13 08:06:07;;;;;;;4.20;3.80;;;;;;;21.57;52.16;100929.07;;;;-51
2019/08/13 08:09:08;;;;;;;4.93;3.63;;;;;;;21.53;52.70;100928.50;;;;-58
2019/08/13 08:12:06;;;;;;;4.93;3.80;;;;;;;21.53;52.67;100931.70;;;;-58
2019/08/13 08:18:11;;;;;;;4.47;4.01;;;;;;;21.36;51.47;100937.73;;;;-58
2019/08/13 08:21:06;;;;;;;4.70;4.08;;;;;;;21.31;51.51;100939.79;;;;-59
2019/08/13 08:24:06;;;;;;;4.90;4.37;;;;;;;21.24;51.08;100937.22;;;;-52
2019/08/13 08:27:06;;;;;;;4.31;3.85;;;;;;;21.30;51.41;100937.33;;;;-52
2019/08/13 08:30:08;;;;;;;4.67;4.05;;;;;;;21.26;51.46;100940.67;;;;-50
2019/08/13 08:33:06;;;;;;;5.07;3.89;;;;;;;21.35;51.68;100942.59;;;;-50
2019/08/13 08:36:08;;;;;;;4.13;3.73;;;;;;;21.45;51.81;100944.18;;;;-51
2019/08/13 08:39:06;;;;;;;3.86;3.51;;;;;;;21.43;51.48;100950.48;;;;-51
2019/08/13 08:42:06;;;;;;;3.93;3.53;;;;;;;21.36;51.03;100954.53;;;;-52
2019/08/13 08:45:06;;;;;;;4.09;3.67;;;;;;;21.33;51.03;100949.95;;;;-54
2019/08/13 08:48:06;;;;;;;4.41;3.73;;;;;;;21.28;50.49;100950.17;;;;-59
2019/08/13 08:51:06;;;;;;;4.22;3.57;;;;;;;21.29;50.80;100950.12;;;;-51
2019/08/13 08:54:06;;;;;;;4.18;3.35;;;;;;;21.37;51.16;100952.12;;;;-52
2019/08/13 08:57:06;;;;;;;4.27;3.76;;;;;;;21.43;51.26;100949.63;;;;-52
2019/08/13 09:00:06;;;;;;;4.22;3.81;;;;;;;21.44;51.03;100948.39;;;;-52
2019/08/13 09:03:06;;;;;;;5.51;3.97;;;;;;;21.43;50.55;100958.38;;;;-61
2019/08/13 09:06:07;;;;;;;4.55;3.97;;;;;;;21.42;50.52;100950.97;;;;-49
2019/08/13 09:09:10;;;;;;;4.55;3.86;;;;;;;21.48;51.05;100954.56;;;;-55
2019/08/13 09:12:06;;;;;;;4.41;3.98;;;;;;;21.48;50.61;100953.48;;;;-56
2019/08/13 09:15:06;;;;;;;4.69;4.27;;;;;;;21.49;50.71;100947.88;;;;-56
2019/08/13 09:18:06;;;;;;;5.38;4.44;;;;;;;21.52;50.82;100948.35;;;;-57
2019/08/13 09:21:07;;;;;;;4.72;4.23;;;;;;;21.57;51.07;100950.36;;;;-54
2019/08/13 09:24:06;;;;;;;4.81;4.41;;;;;;;21.60;51.23;100954.25;;;;-52
2019/08/13 09:27:06;;;;;;;5.59;4.05;;;;;;;21.64;50.90;100947.46;;;;-49
2019/08/13 09:30:06;;;;;;;4.31;3.89;;;;;;;21.61;49.90;100942.22;;;;-51
2019/08/13 09:33:07;;;;;;;4.05;3.65;;;;;;;21.69;50.56;100949.09;;;;-56
2019/08/13 09:36:06;;;;;;;4.61;4.12;;;;;;;21.69;50.77;100944.05;;;;-57
2019/08/13 09:39:06;;;;;;;4.13;3.75;;;;;;;21.67;50.49;100938.86;;;;-58
2019/08/13 09:42:06;;;;;;;4.84;3.79;;;;;;;21.64;50.58;100943.30;;;;-50
2019/08/13 09:45:06;;;;;;;5.26;3.67;;;;;;;21.64;50.36;100944.70;;;;-48
2019/08/13 09:48:06;;;;;;;3.77;3.47;;;;;;;21.60;49.70;100938.95;;;;-49
2019/08/13 09:51:06;;;;;;;4.22;3.45;;;;;;;21.65;50.62;100942.30;;;;-56
2019/08/13 09:54:06;;;;;;;3.59;3.03;;;;;;;21.65;50.26;100937.52;;;;-56
2019/08/13 09:57:06;;;;;;;4.67;3.09;;;;;;;21.64;50.11;100931.53;;;;-57
2019/08/13 10:00:06;;;;;;;3.07;2.81;;;;;;;21.64;49.75;100934.86;;;;-60
2019/08/13 10:03:06;;;;;;;3.64;3.02;;;;;;;21.64;50.02;100934.75;;;;-59
2019/08/13 10:06:07;;;;;;;3.31;3.01;;;;;;;21.63;49.61;100940.46;;;;-57
2019/08/13 10:09:06;;;;;;;4.63;3.03;;;;;;;21.70;50.09;100940.22;;;;-58
2019/08/13 10:12:06;;;;;;;3.10;2.80;;;;;;;21.71;50.34;100939.97;;;;-58
2019/08/13 10:15:06;;;;;;;3.16;2.86;;;;;;;21.71;50.29;100939.53;;;;-58
2019/08/13 10:18:07;;;;;;;4.01;2.81;;;;;;;21.70;50.49;100942.69;;;;-58
2019/08/13 10:21:07;;;;;;;3.51;2.82;;;;;;;21.72;50.65;100940.75;;;;-50
2019/08/13 10:24:06;;;;;;;4.31;2.93;;;;;;;21.73;50.79;100948.97;;;;-51
2019/08/13 10:27:06;;;;;;;2.79;2.59;;;;;;;21.73;50.65;100947.35;;;;-50
2019/08/13 10:30:06;;;;;;;3.95;2.78;;;;;;;21.73;50.77;100941.64;;;;-50
2019/08/13 10:33:06;;;;;;;2.95;2.63;;;;;;;21.74;50.44;100943.08;;;;-51
2019/08/13 10:36:06;;;;;;;3.26;2.50;;;;;;;21.75;50.66;100938.26;;;;-51
2019/08/13 10:39:06;;;;;;;2.92;2.72;;;;;;;21.75;50.58;100937.52;;;;-50
2019/08/13 10:42:06;;;;;;;3.15;2.77;;;;;;;21.76;50.71;100948.55;;;;-50
2019/08/13 10:45:06;;;;;;;3.09;2.79;;;;;;;21.75;50.41;100945.66;;;;-51
2019/08/13 10:48:06;;;;;;;3.73;2.57;;;;;;;21.76;50.23;100940.81;;;;-58
2019/08/13 10:51:06;;;;;;;3.15;2.65;;;;;;;21.75;50.01;100938.86;;;;-57
2019/08/13 10:54:06;;;;;;;3.03;2.73;;;;;;;21.76;50.24;100936.88;;;;-51
2019/08/13 10:57:06;;;;;;;3.05;2.77;;;;;;;21.74;49.95;100939.83;;;;-51
2019/08/13 11:00:07;;;;;;;2.97;2.51;;;;;;;21.75;49.97;100935.90;;;;-59
2019/08/13 11:03:06;;;;;;;2.60;2.37;;;;;;;21.77;49.86;100937.50;;;;-60
2019/08/13 11:06:06;;;;;;;2.79;2.55;;;;;;;21.75;49.86;100933.82;;;;-59
2019/08/13 11:09:06;;;;;;;3.17;2.41;;;;;;;21.76;49.84;100932.08;;;;-59
2019/08/13 11:12:06;;;;;;;3.20;2.50;;;;;;;21.76;49.67;100928.88;;;;-52
2019/08/13 11:15:06;;;;;;;4.48;2.57;;;;;;;21.75;49.45;100930.85;;;;-53
2019/08/13 11:18:07;;;;;;;3.27;2.61;;;;;;;21.74;49.26;100929.23;;;;-51
2019/08/13 11:21:07;;;;;;;2.60;2.40;;;;;;;21.75;49.57;100926.76;;;;-51
2019/08/13 11:24:06;;;;;;;3.01;2.51;;;;;;;21.76;49.60;100923.09;;;;-58
2019/08/13 11:27:06;;;;;;;2.80;2.50;;;;;;;21.77;49.38;100915.23;;;;-58
2019/08/13 11:30:06;;;;;;;3.30;2.50;;;;;;;21.76;49.32;100901.30;;;;-50
2019/08/13 11:38:01;;;;;;;3.32;2.49;;;;;;;21.86;49.82;100899.03;;;;-60
2019/08/13 11:41:01;;;;;;;2.69;2.48;;;;;;;21.91;50.29;100894.84;;;;-58
2019/08/13 11:44:01;;;;;;;3.32;2.51;;;;;;;21.95;50.55;100890.50;;;;-59
2019/08/13 11:47:01;;;;;;;2.79;2.54;;;;;;;21.99;50.85;100887.27;;;;-60
2019/08/13 11:50:01;;;;;;;3.12;2.57;;;;;;;22.02;51.01;100892.13;;;;-57
2019/08/13 11:53:01;;;;;;;2.89;2.32;;;;;;;22.05;51.17;100901.64;;;;-49
2019/08/13 11:56:01;;;;;;;2.73;2.42;;;;;;;22.07;51.35;100893.25;;;;-50
2019/08/13 11:59:01;;;;;;;3.61;2.47;;;;;;;22.09;51.52;100893.06;;;;-57
2019/08/13 12:02:01;;;;;;;2.97;2.30;;;;;;;22.09;51.62;100883.14;;;;-57
2019/08/13 12:05:01;;;;;;;5.21;2.59;;;;;;;22.10;51.90;100886.47;;;;-49
2019/08/13 12:08:01;;;;;;;2.90;2.42;;;;;;;22.12;51.83;100879.99;;;;-49
2019/08/13 12:11:01;;;;;;;3.60;2.53;;;;;;;22.14;52.04;100872.95;;;;-50
2019/08/13 12:14:01;;;;;;;4.98;2.23;;;;;;;22.16;52.12;100870.47;;;;-57
2019/08/13 12:17:01;;;;;;;4.95;2.64;;;;;;;22.18;52.21;100872.09;;;;-51
2019/08/13 12:20:02;;;;;;;4.65;2.59;;;;;;;22.19;52.23;100872.77;;;;-51
2019/08/13 12:23:01;;;;;;;6.63;2.79;;;;;;;22.19;52.41;100865.91;;;;-49
2019/08/13 12:26:01;;;;;;;5.03;2.66;;;;;;;22.20;52.47;100862.58;;;;-56
2019/08/13 12:29:01;;;;;;;4.17;2.59;;;;;;;22.23;52.66;100859.30;;;;-49
2019/08/13 12:32:01;;;;;;;5.11;2.59;;;;;;;22.25;52.74;100857.77;;;;-48
2019/08/13 12:35:01;;;;;;;3.81;2.43;;;;;;;22.26;52.73;100855.78;;;;-50
2019/08/13 12:38:01;;;;;;;4.02;2.54;;;;;;;22.27;52.81;100855.59;;;;-50
2019/08/13 12:41:01;;;;;;;4.85;2.91;;;;;;;22.30;52.91;100854.87;;;;-57
2019/08/13 12:44:01;;;;;;;8.35;3.80;;;;;;;22.31;52.96;100856.09;;;;-51
2019/08/13 12:47:01;;;;;;;8.87;4.21;;;;;;;22.32;52.99;100852.76;;;;-50
2019/08/13 12:50:01;;;;;;;11.37;5.77;;;;;;;22.33;53.17;100850.84;;;;-55
2019/08/13 12:53:01;;;;;;;17.68;7.31;;;;;;;22.33;53.13;100847.58;;;;-60
2019/08/13 12:56:01;;;;;;;16.02;8.58;;;;;;;22.34;53.24;100845.30;;;;-52
2019/08/13 12:59:01;;;;;;;23.53;9.35;;;;;;;22.35;53.24;100846.92;;;;-58
2019/08/13 13:02:01;;;;;;;20.45;10.05;;;;;;;22.35;53.36;100843.55;;;;-58
2019/08/13 13:05:01;;;;;;;22.39;10.28;;;;;;;22.35;53.21;100840.97;;;;-50
2019/08/13 13:08:01;;;;;;;19.74;10.17;;;;;;;22.36;53.26;100837.88;;;;-52
2019/08/13 13:11:01;;;;;;;21.01;10.16;;;;;;;22.35;53.28;100836.42;;;;-52
2019/08/13 13:14:01;;;;;;;20.69;9.54;;;;;;;22.36;53.24;100829.28;;;;-58
2019/08/13 13:17:01;;;;;;;19.37;10.31;;;;;;;22.36;53.21;100824.07;;;;-58
2019/08/13 13:20:01;;;;;;;21.99;9.97;;;;;;;22.36;53.25;100824.58;;;;-52
2019/08/13 13:23:01;;;;;;;16.45;9.87;;;;;;;22.36;53.10;100821.72;;;;-52
2019/08/13 13:26:01;;;;;;;20.81;9.81;;;;;;;22.35;53.24;100818.75;;;;-58
2019/08/13 13:29:01;;;;;;;20.38;10.21;;;;;;;22.36;53.19;100813.97;;;;-50
2019/08/13 13:32:01;;;;;;;18.35;9.62;;;;;;;22.37;53.15;100817.98;;;;-50
2019/08/13 13:35:01;;;;;;;19.29;9.47;;;;;;;22.39;53.16;100817.73;;;;-49
2019/08/13 13:38:01;;;;;;;16.46;9.15;;;;;;;22.40;53.22;100812.28;;;;-49
2019/08/13 13:41:01;;;;;;;19.14;9.13;;;;;;;22.41;53.26;100811.98;;;;-52
2019/08/13 13:44:01;;;;;;;17.98;9.35;;;;;;;22.42;53.30;100808.58;;;;-51
2019/08/13 13:47:01;;;;;;;17.98;10.01;;;;;;;22.44;53.41;100808.39;;;;-49
2019/08/13 13:50:01;;;;;;;20.22;9.82;;;;;;;22.45;53.54;100805.91;;;;-51
2019/08/13 13:53:02;;;;;;;17.47;10.01;;;;;;;22.46;53.49;100802.74;;;;-52
2019/08/13 13:56:01;;;;;;;23.01;11.80;;;;;;;22.46;53.83;100800.89;;;;-57
2019/08/13 13:59:01;;;;;;;20.77;10.62;;;;;;;22.46;53.67;100803.58;;;;-51
2019/08/13 14:02:01;;;;;;;20.90;11.34;;;;;;;22.46;53.59;100807.28;;;;-51
2019/08/13 14:05:01;;;;;;;24.13;11.35;;;;;;;22.47;53.55;100803.19;;;;-50
2019/08/13 14:08:01;;;;;;;22.63;11.17;;;;;;;22.46;53.59;100795.73;;;;-56
2019/08/13 14:11:01;;;;;;;22.76;11.15;;;;;;;22.46;53.43;100796.78;;;;-57
2019/08/13 14:14:01;;;;;;;20.01;10.97;;;;;;;22.46;53.43;100796.18;;;;-57
2019/08/13 14:17:01;;;;;;;19.72;10.71;;;;;;;22.46;53.42;100794.56;;;;-51
2019/08/13 14:20:01;;;;;;;19.09;9.91;;;;;;;22.46;53.45;100796.28;;;;-57
2019/08/13 14:23:01;;;;;;;20.07;10.36;;;;;;;22.47;53.60;100796.78;;;;-59
2019/08/13 14:26:01;;;;;;;18.99;10.77;;;;;;;22.48;53.72;100795.08;;;;-52
2019/08/13 14:29:01;;;;;;;19.11;10.65;;;;;;;22.48;53.81;100791.84;;;;-60
2019/08/13 14:32:01;;;;;;;24.80;10.80;;;;;;;22.48;53.66;100794.84;;;;-52
2019/08/13 14:35:01;;;;;;;20.77;10.76;;;;;;;22.48;53.72;100791.88;;;;-58
2019/08/13 14:38:01;;;;;;;18.97;10.27;;;;;;;22.48;53.77;100785.58;;;;-58
2019/08/13 14:41:01;;;;;;;20.11;10.62;;;;;;;22.48;53.72;100785.14;;;;-52
2019/08/13 14:44:01;;;;;;;18.45;10.40;;;;;;;22.47;53.63;100775.95;;;;-58
2019/08/13 14:47:01;;;;;;;19.55;10.16;;;;;;;22.48;53.59;100777.17;;;;-51
2019/08/13 14:50:01;;;;;;;18.65;10.33;;;;;;;22.48;53.59;100770.50;;;;-58
2019/08/13 14:53:01;;;;;;;18.40;10.27;;;;;;;22.48;53.49;100767.88;;;;-59
2019/08/13 14:56:01;;;;;;;20.43;9.83;;;;;;;22.48;53.48;100769.09;;;;-52
2019/08/13 14:59:01;;;;;;;18.95;9.75;;;;;;;22.49;53.44;100766.97;;;;-52
2019/08/13 15:02:01;;;;;;;16.92;10.05;;;;;;;22.49;53.53;100760.51;;;;-51
2019/08/13 15:05:01;;;;;;;15.99;9.31;;;;;;;22.48;53.49;100757.48;;;;-52
2019/08/13 15:08:01;;;;;;;15.90;9.75;;;;;;;22.49;53.41;100763.30;;;;-57
2019/08/13 15:11:01;;;;;;;15.85;9.57;;;;;;;22.48;53.52;100758.15;;;;-51
2019/08/13 15:14:01;;;;;;;16.42;9.13;;;;;;;22.49;53.52;100755.86;;;;-58
2019/08/13 15:17:01;;;;;;;17.85;9.61;;;;;;;22.48;53.59;100762.36;;;;-52
2019/08/13 15:20:01;;;;;;;17.15;9.15;;;;;;;22.48;53.54;100758.55;;;;-58
2019/08/13 15:23:01;;;;;;;14.94;8.71;;;;;;;22.48;53.58;100757.61;;;;-59
2019/08/13 15:26:01;;;;;;;16.05;8.95;;;;;;;22.49;53.53;100754.01;;;;-59
2019/08/13 15:29:01;;;;;;;15.47;8.68;;;;;;;22.49;53.69;100754.82;;;;-58
2019/08/13 15:32:01;;;;;;;23.03;9.11;;;;;;;22.52;53.73;100756.14;;;;-49
2019/08/13 15:35:01;;;;;;;16.23;8.45;;;;;;;22.53;53.83;100758.73;;;;-58
2019/08/13 15:38:01;;;;;;;13.90;8.33;;;;;;;22.55;53.87;100760.33;;;;-52
2019/08/13 15:41:01;;;;;;;18.85;8.53;;;;;;;22.54;53.92;100757.56;;;;-56
2019/08/13 15:44:01;;;;;;;16.06;8.41;;;;;;;22.54;54.04;100760.70;;;;-49
2019/08/13 15:47:01;;;;;;;14.90;8.13;;;;;;;22.54;53.95;100757.89;;;;-55
2019/08/13 15:50:01;;;;;;;13.05;7.89;;;;;;;22.54;53.95;100762.44;;;;-49
2019/08/13 15:53:01;;;;;;;14.53;8.43;;;;;;;22.54;53.82;100766.31;;;;-49
2019/08/13 15:56:01;;;;;;;14.03;8.10;;;;;;;22.53;53.85;100762.61;;;;-49
2019/08/13 15:59:01;;;;;;;13.95;7.91;;;;;;;22.53;53.94;100759.52;;;;-48
2019/08/13 16:02:02;;;;;;;13.92;7.75;;;;;;;22.53;53.93;100756.52;;;;-49
2019/08/13 16:05:01;;;;;;;14.48;8.24;;;;;;;22.53;53.92;100756.55;;;;-55
2019/08/13 16:08:01;;;;;;;12.98;8.18;;;;;;;22.53;53.86;100755.17;;;;-56
2019/08/13 16:11:01;;;;;;;14.31;7.89;;;;;;;22.53;53.88;100753.45;;;;-51
2019/08/13 16:14:01;;;;;;;12.19;7.63;;;;;;;22.52;53.91;100754.49;;;;-56
2019/08/13 16:17:01;;;;;;;12.61;7.87;;;;;;;22.53;53.88;100758.91;;;;-56
2019/08/13 16:20:01;;;;;;;14.71;7.42;;;;;;;22.53;53.84;100754.26;;;;-57
2019/08/13 16:23:01;;;;;;;12.61;7.43;;;;;;;22.53;53.93;100755.44;;;;-56
2019/08/13 16:26:01;;;;;;;13.29;7.47;;;;;;;22.52;53.88;100750.55;;;;-51
2019/08/13 16:29:02;;;;;;;13.74;7.57;;;;;;;22.52;53.87;100749.78;;;;-57
2019/08/13 16:32:01;;;;;;;12.63;7.29;;;;;;;22.52;53.89;100750.79;;;;-55
2019/08/13 16:35:01;;;;;;;14.47;7.41;;;;;;;22.52;53.89;100746.01;;;;-56
2019/08/13 16:38:01;;;;;;;13.51;7.28;;;;;;;22.53;53.91;100749.37;;;;-56
2019/08/13 16:41:02;;;;;;;12.03;7.01;;;;;;;22.53;53.86;100747.36;;;;-55
2019/08/13 16:44:01;;;;;;;12.75;7.29;;;;;;;22.53;53.77;100742.88;;;;-54
2019/08/13 16:47:01;;;;;;;12.17;7.00;;;;;;;22.53;53.90;100746.45;;;;-54
2019/08/13 16:50:01;;;;;;;11.31;6.77;;;;;;;22.52;53.76;100743.89;;;;-56
2019/08/13 16:53:01;;;;;;;13.65;6.90;;;;;;;22.53;53.87;100749.81;;;;-57
2019/08/13 16:56:01;;;;;;;11.32;6.95;;;;;;;22.52;53.85;100746.17;;;;-57
2019/08/13 16:59:01;;;;;;;10.73;6.45;;;;;;;22.53;53.92;100745.91;;;;-58
2019/08/13 17:02:01;;;;;;;11.13;6.89;;;;;;;22.53;53.96;100743.15;;;;-58
2019/08/13 17:05:01;;;;;;;11.69;6.60;;;;;;;22.53;53.98;100740.02;;;;-55
2019/08/13 17:08:01;;;;;;;10.46;6.48;;;;;;;22.53;53.90;100740.39;;;;-56
2019/08/13 17:11:02;;;;;;;11.20;6.61;;;;;;;22.53;53.89;100740.33;;;;-51
2019/08/13 17:14:01;;;;;;;10.97;6.43;;;;;;;22.53;53.84;100739.55;;;;-51
2019/08/13 17:17:01;;;;;;;10.94;6.63;;;;;;;22.53;53.98;100737.66;;;;-56
2019/08/13 17:20:01;;;;;;;10.73;6.67;;;;;;;22.52;53.94;100739.61;;;;-54
2019/08/13 17:23:01;;;;;;;8.91;6.07;;;;;;;22.52;53.90;100739.45;;;;-55
2019/08/13 17:26:01;;;;;;;12.35;6.44;;;;;;;22.53;53.95;100741.33;;;;-56
2019/08/13 17:29:01;;;;;;;10.26;6.38;;;;;;;22.54;53.86;100739.72;;;;-49